Aviation Digital Data Service (ADDS)

Output produced by METARs form (1342 UTC 29 March 2015)
found at http://aviationweather.gov/adds/metars/
 
KDAN 291121Z 2912/3012 00000KT P6SM SKC 
     FM291600 29005KT P6SM SKC 
     FM291900 23007KT P6SM SKC 
     FM300300 21005KT P6SM BKN150 
     FM300800 22007KT P6SM -SHRA OVC050